Time;durP1;ratioP1;P1;durP2;ratioP2;P2;SDS_P1;SDS_P2;PMS_P1;PMS_P2;Temp;Humidity;BMP_temperature;BMP_pressure;BME280_temperature;BME280_humidity;BME280_pressure;Samples;Min_cycle;Max_cycle;Signal;HPM_P1;HPM_P2
2023/04/07 00:01:22;;;;;;;14.97;11.10;;;2.20;94.10;;;;;;5037145;28;20245;-72
2023/04/07 00:03:48;;;;;;;14.97;11.93;;;2.10;94.10;;;;;;5037519;28;20185;-72
2023/04/07 00:06:13;;;;;;;17.50;11.70;;;2.00;94.30;;;;;;5037516;28;20195;-72
2023/04/07 00:08:39;;;;;;;15.40;11.93;;;2.00;94.50;;;;;;5037331;28;20269;-72
2023/04/07 00:11:05;;;;;;;13.70;10.60;;;2.00;94.60;;;;;;5037000;28;20261;-72
2023/04/07 00:13:30;;;;;;;15.00;12.20;;;1.90;94.60;;;;;;5037015;28;20536;-72
2023/04/07 00:15:56;;;;;;;14.43;12.23;;;1.90;94.90;;;;;;5037357;28;20217;-72
2023/04/07 00:18:21;;;;;;;16.40;12.97;;;1.80;95.20;;;;;;5036931;28;20206;-72
2023/04/07 00:20:47;;;;;;;15.67;12.20;;;1.90;95.30;;;;;;5036782;28;20201;-72
2023/04/07 00:23:12;;;;;;;17.83;12.30;;;1.90;95.40;;;;;;5037655;28;20177;-72
2023/04/07 00:25:38;;;;;;;14.77;12.07;;;2.00;95.40;;;;;;5053534;28;20225;-72
2023/04/07 00:28:04;;;;;;;17.03;12.70;;;1.90;95.20;;;;;;5036548;28;20265;-72
2023/04/07 00:30:29;;;;;;;18.33;12.37;;;1.80;95.30;;;;;;5036956;28;20170;-72
2023/04/07 00:32:55;;;;;;;15.00;12.23;;;1.80;95.50;;;;;;5036666;28;20209;-72
2023/04/07 00:35:21;;;;;;;15.17;12.23;;;1.80;95.70;;;;;;5036536;28;20185;-72
2023/04/07 00:37:47;;;;;;;18.30;12.73;;;1.80;95.60;;;;;;5053348;28;20202;-72
2023/04/07 00:40:13;;;;;;;20.87;14.37;;;1.80;95.60;;;;;;5036459;28;20178;-72
2023/04/07 00:42:38;;;;;;;17.37;13.70;;;1.90;95.80;;;;;;5053943;28;20205;-72
2023/04/07 00:45:04;;;;;;;16.10;12.93;;;1.80;95.90;;;;;;5037283;28;20258;-72
2023/04/07 00:47:30;;;;;;;17.57;13.17;;;1.90;96.10;;;;;;5036377;28;20198;-72
2023/04/07 00:49:56;;;;;;;16.90;13.37;;;2.00;96.20;;;;;;5036342;28;20185;-72
2023/04/07 00:52:27;;;;;;;20.90;14.50;;;2.10;96.20;;;;;;5036166;28;20178;-72
2023/04/07 00:54:54;;;;;;;19.83;13.40;;;2.20;95.80;;;;;;5036225;28;20183;-72
2023/04/07 00:57:21;;;;;;;16.83;12.90;;;2.30;95.40;;;;;;5053927;28;20217;-72
2023/04/07 00:59:48;;;;;;;17.77;13.17;;;2.50;95.00;;;;;;5035981;28;20178;-72
2023/04/07 01:33:19;;;;;;;22.50;14.53;;;2.60;95.50;;;;;;5434820;22;20234;-94
2023/04/07 01:35:47;;;;;;;18.00;13.43;;;2.60;95.60;;;;;;5042267;28;20206;-94
2023/04/07 01:38:13;;;;;;;23.77;15.77;;;2.70;95.50;;;;;;5041691;28;20186;-94
2023/04/07 01:40:40;;;;;;;22.10;15.73;;;2.60;95.70;;;;;;5042180;28;20178;-94
2023/04/07 01:43:06;;;;;;;19.80;14.67;;;2.60;96.20;;;;;;5043072;28;20182;-94
2023/04/07 01:45:34;;;;;;;16.87;13.63;;;2.70;96.30;;;;;;5042799;28;20174;-94
2023/04/07 01:48:00;;;;;;;20.50;14.30;;;2.70;96.20;;;;;;5042804;28;20174;-94
2023/04/07 01:50:28;;;;;;;20.37;13.77;;;2.70;96.10;;;;;;5042274;28;20185;-94
2023/04/07 01:52:54;;;;;;;17.20;13.20;;;2.70;96.30;;;;;;5042074;28;20175;-94
2023/04/07 01:55:21;;;;;;;16.37;13.03;;;2.70;96.50;;;;;;5041710;28;20214;-94
2023/04/07 01:57:46;;;;;;;17.07;12.83;;;2.80;96.20;;;;;;5041721;28;20178;-94
2023/04/07 02:00:13;;;;;;;19.33;13.27;;;2.90;96.20;;;;;;5042465;28;20178;-95
2023/04/07 02:02:44;;;;;;;19.73;14.00;;;2.90;96.10;;;;;;5059391;28;20208;-94
2023/04/07 02:05:13;;;;;;;18.17;14.53;;;2.90;96.40;;;;;;5041533;28;20166;-94
2023/04/07 02:07:52;;;;;;;22.83;15.90;;;2.70;96.40;;;;;;5042040;28;20178;-93
2023/04/07 02:10:22;;;;;;;19.47;14.07;;;2.70;96.80;;;;;;5042251;28;20162;-94
2023/04/07 02:12:48;;;;;;;22.50;14.33;;;2.60;97.10;;;;;;5042249;28;20181;-94
2023/04/07 02:15:15;;;;;;;20.97;15.17;;;2.70;96.70;;;;;;5043089;28;20218;-94
2023/04/07 02:17:45;;;;;;;18.77;14.93;;;2.70;97.00;;;;;;5041270;28;20235;-94
2023/04/07 02:20:12;;;;;;;21.40;14.30;;;2.80;97.30;;;;;;5042545;28;20170;-94
2023/04/07 02:22:39;;;;;;;21.17;14.30;;;2.80;96.80;;;;;;5041627;28;20202;-94
2023/04/07 02:25:25;;;;;;;16.77;13.90;;;2.80;97.00;;;;;;5041623;28;20198;-94
2023/04/07 02:27:51;;;;;;;16.47;13.30;;;2.90;97.10;;;;;;5042203;28;20162;-94
2023/04/07 02:30:18;;;;;;;19.43;13.00;;;2.90;97.00;;;;;;5060041;28;20182;-94
2023/04/07 02:32:43;;;;;;;17.87;13.70;;;2.80;96.90;;;;;;5041795;28;20198;-94
2023/04/07 02:35:10;;;;;;;16.27;13.53;;;2.90;97.00;;;;;;5041530;28;20205;-94
2023/04/07 02:37:36;;;;;;;20.90;14.20;;;3.00;96.90;;;;;;5041450;28;20202;-94
2023/04/07 02:40:02;;;;;;;22.00;15.70;;;3.10;96.70;;;;;;5042449;28;20179;-93
2023/04/07 02:42:28;;;;;;;22.27;16.07;;;3.10;96.60;;;;;;5041641;28;20214;-94
2023/04/07 02:44:53;;;;;;;20.70;14.80;;;3.10;96.90;;;;;;5060956;28;20182;-95
2023/04/07 02:47:19;;;;;;;23.50;17.23;;;3.10;97.20;;;;;;5041796;28;20195;-94
2023/04/07 02:49:45;;;;;;;28.10;18.83;;;3.20;97.10;;;;;;5041793;28;20197;-94
2023/04/07 02:52:11;;;;;;;27.23;18.93;;;3.20;96.80;;;;;;5045241;28;20182;-94
2023/04/07 02:54:37;;;;;;;24.93;16.80;;;3.20;96.80;;;;;;5063112;28;20186;-94
2023/04/07 02:57:02;;;;;;;17.23;14.37;;;3.20;96.90;;;;;;5045018;28;20209;-94
2023/04/07 02:59:28;;;;;;;20.93;15.03;;;3.20;97.00;;;;;;5044952;28;20249;-94
2023/04/07 03:01:54;;;;;;;19.97;15.07;;;3.20;97.00;;;;;;5045428;28;20206;-94
2023/04/07 03:04:20;;;;;;;19.37;15.07;;;3.20;96.90;;;;;;5045372;28;20184;-94
2023/04/07 03:06:46;;;;;;;17.70;13.67;;;3.10;96.70;;;;;;5044367;28;20202;-94
2023/04/07 03:09:12;;;;;;;19.60;13.97;;;3.00;97.00;;;;;;5044813;28;20181;-94
2023/04/07 03:11:37;;;;;;;18.83;14.70;;;3.00;97.10;;;;;;5045972;28;20190;-94
2023/04/07 03:14:03;;;;;;;17.17;13.13;;;2.90;96.90;;;;;;5045610;28;20285;-94
2023/04/07 03:16:29;;;;;;;19.70;13.97;;;2.90;97.50;;;;;;5063177;28;20232;-94
2023/04/07 03:18:54;;;;;;;16.67;13.33;;;2.80;98.30;;;;;;5045106;28;20178;-94
2023/04/07 03:21:21;;;;;;;17.50;13.47;;;2.80;98.50;;;;;;5045257;28;20289;-94
2023/04/07 03:23:46;;;;;;;16.77;13.37;;;2.80;98.70;;;;;;5044537;28;20175;-94
2023/04/07 03:26:12;;;;;;;14.87;12.43;;;2.90;98.90;;;;;;5044714;28;20201;-94
2023/04/07 03:28:37;;;;;;;15.97;12.50;;;2.80;98.60;;;;;;5044178;28;20177;-94
2023/04/07 03:31:03;;;;;;;20.27;13.13;;;2.90;98.60;;;;;;5045011;28;20182;-94
2023/04/07 03:33:29;;;;;;;19.83;12.70;;;3.00;98.50;;;;;;5044733;28;20225;-94
2023/04/07 03:35:55;;;;;;;17.53;13.07;;;3.00;98.40;;;;;;5045327;28;20206;-94
2023/04/07 03:38:21;;;;;;;19.13;13.17;;;3.00;98.30;;;;;;5045860;28;20214;-94
2023/04/07 03:40:46;;;;;;;16.67;13.23;;;2.90;98.30;;;;;;5044734;28;20201;-94
2023/04/07 03:43:14;;;;;;;16.97;13.97;;;3.00;98.10;;;;;;5045036;28;20183;-95
2023/04/07 03:45:40;;;;;;;19.83;17.50;;;3.00;97.90;;;;;;5046426;28;20194;-94
2023/04/07 03:48:10;;;;;;;17.47;14.53;;;3.00;97.90;;;;;;5046176;28;20182;-94
2023/04/07 03:50:37;;;;;;;16.90;14.37;;;3.00;97.90;;;;;;5044723;28;20186;-94
2023/04/07 03:53:02;;;;;;;18.53;15.13;;;2.90;97.90;;;;;;5044649;28;20181;-94
2023/04/07 03:55:28;;;;;;;19.00;14.80;;;2.90;97.80;;;;;;5044093;28;20265;-94
2023/04/07 03:57:54;;;;;;;18.80;14.43;;;2.90;97.80;;;;;;5043971;28;20205;-94
2023/04/07 04:00:20;;;;;;;15.73;13.87;;;2.90;97.90;;;;;;5044469;28;20174;-94
2023/04/07 04:02:45;;;;;;;17.00;13.83;;;3.00;98.10;;;;;;5061872;28;20206;-94
2023/04/07 04:05:11;;;;;;;21.37;18.00;;;3.00;97.90;;;;;;5045205;28;20182;-94
2023/04/07 04:07:37;;;;;;;18.03;16.10;;;3.00;97.90;;;;;;5044447;28;20287;-94
2023/04/07 04:10:03;;;;;;;18.10;15.90;;;3.00;97.90;;;;;;5043403;28;20174;-94
2023/04/07 04:12:28;;;;;;;19.53;15.20;;;2.90;97.70;;;;;;5044277;28;20178;-94
2023/04/07 04:14:54;;;;;;;21.27;14.40;;;2.90;98.00;;;;;;5043999;28;20197;-94
2023/04/07 04:17:20;;;;;;;24.57;17.10;;;2.90;97.90;;;;;;5043632;28;20198;-94
2023/04/07 04:19:45;;;;;;;19.63;16.07;;;2.90;97.80;;;;;;5043737;28;20284;-94
2023/04/07 04:22:11;;;;;;;20.23;16.27;;;3.00;97.80;;;;;;5043128;28;20202;-95
2023/04/07 04:24:37;;;;;;;19.27;15.10;;;3.10;97.70;;;;;;5043359;28;20182;-94
2023/04/07 04:27:02;;;;;;;17.13;15.20;;;2.90;97.80;;;;;;5042461;28;20202;-94
2023/04/07 04:29:28;;;;;;;16.60;14.80;;;2.80;98.20;;;;;;5042331;28;20178;-94
2023/04/07 04:31:54;;;;;;;19.50;15.50;;;2.80;98.50;;;;;;5060783;28;20257;-94
2023/04/07 04:34:20;;;;;;;16.13;14.43;;;2.80;98.50;;;;;;5043681;28;20189;-94
2023/04/07 04:36:47;;;;;;;16.83;14.43;;;2.90;98.40;;;;;;5043377;28;20210;-94
2023/04/07 04:39:13;;;;;;;18.40;14.77;;;3.00;98.80;;;;;;5061343;28;20270;-94
2023/04/07 04:41:39;;;;;;;17.13;14.17;;;2.90;98.50;;;;;;5044123;28;20241;-94
2023/04/07 04:44:05;;;;;;;17.90;14.47;;;2.90;98.70;;;;;;5044370;28;20178;-94
2023/04/07 04:46:31;;;;;;;20.67;14.47;;;2.90;99.00;;;;;;5042807;28;20201;-94
2023/04/07 04:48:56;;;;;;;19.93;14.10;;;3.00;98.60;;;;;;5043216;28;20174;-94
2023/04/07 04:51:22;;;;;;;22.33;15.20;;;3.20;98.40;;;;;;5044192;28;20182;-94
2023/04/07 04:53:48;;;;;;;20.47;14.87;;;3.10;98.50;;;;;;5044377;28;20186;-94
2023/04/07 04:56:14;;;;;;;16.80;14.47;;;3.10;98.50;;;;;;5043259;28;20292;-94
2023/04/07 04:58:44;;;;;;;18.00;14.63;;;3.10;99.10;;;;;;5044104;28;20179;-94
2023/04/07 05:01:13;;;;;;;18.00;15.03;;;3.20;98.70;;;;;;5045325;28;20229;-94
2023/04/07 05:03:39;;;;;;;19.13;15.03;;;3.20;99.10;;;;;;5043700;28;20175;-94
2023/04/07 05:06:05;;;;;;;21.40;18.63;;;3.20;99.00;;;;;;5060062;28;20221;-95
2023/04/07 05:08:31;;;;;;;19.47;16.50;;;3.30;98.70;;;;;;5066250;28;20181;-95
2023/04/07 05:10:57;;;;;;;17.43;14.90;;;3.40;98.50;;;;;;5069955;28;20182;-95
2023/04/07 05:13:24;;;;;;;17.57;15.47;;;3.40;98.60;;;;;;5067341;28;20182;-94
2023/04/07 05:15:50;;;;;;;22.00;15.57;;;3.60;98.40;;;;;;5069557;28;20301;-94
2023/04/07 05:18:16;;;;;;;18.67;14.90;;;3.70;98.10;;;;;;5068332;28;20189;-95
2023/04/07 05:20:43;;;;;;;17.77;14.27;;;3.80;98.30;;;;;;5069366;28;20169;-96
2023/04/07 05:23:09;;;;;;;17.20;13.53;;;4.00;98.00;;;;;;5069753;28;20174;-94
2023/04/07 05:25:35;;;;;;;15.10;13.07;;;4.00;97.70;;;;;;5067617;28;20236;-95
2023/04/07 05:28:01;;;;;;;16.27;13.80;;;4.10;97.50;;;;;;5084771;28;20207;-94
2023/04/07 05:30:26;;;;;;;16.33;13.80;;;4.20;97.60;;;;;;5067990;28;20215;-94
2023/04/07 05:32:53;;;;;;;16.00;13.50;;;4.30;97.40;;;;;;5067462;28;20260;-94
2023/04/07 05:35:20;;;;;;;17.57;13.60;;;4.30;97.20;;;;;;5066574;28;20201;-94
2023/04/07 05:37:45;;;;;;;15.30;13.13;;;4.40;97.10;;;;;;5066795;28;20203;-95
2023/04/07 05:40:11;;;;;;;15.90;13.40;;;4.40;97.10;;;;;;5069426;28;20199;-95
2023/04/07 05:42:37;;;;;;;16.67;14.17;;;4.50;97.00;;;;;;5069029;28;20216;-94
2023/04/07 05:45:03;;;;;;;16.93;14.37;;;4.50;97.40;;;;;;5067606;28;20219;-94
2023/04/07 05:47:29;;;;;;;15.30;13.67;;;4.50;97.20;;;;;;5081495;28;20186;-95
2023/04/07 05:49:55;;;;;;;17.87;14.07;;;4.40;97.20;;;;;;5072145;28;20248;-95
2023/04/07 05:52:21;;;;;;;18.40;13.83;;;4.50;97.10;;;;;;5068943;28;20185;-95
2023/04/07 05:54:46;;;;;;;16.30;14.33;;;4.50;96.70;;;;;;5069433;28;20181;-95
2023/04/07 05:57:12;;;;;;;16.33;13.73;;;4.50;96.50;;;;;;5069051;28;20198;-94
2023/04/07 05:59:40;;;;;;;18.50;13.90;;;4.60;96.50;;;;;;5067988;28;20181;-94
2023/04/07 06:02:06;;;;;;;16.13;13.97;;;4.60;96.70;;;;;;5068032;28;20204;-95
2023/04/07 06:04:34;;;;;;;15.27;13.67;;;4.60;96.60;;;;;;5067861;28;20241;-94
2023/04/07 06:07:00;;;;;;;21.40;13.97;;;4.60;96.70;;;;;;5065542;28;20193;-94
2023/04/07 06:09:32;;;;;;;17.17;14.03;;;4.70;96.50;;;;;;5085577;28;20181;-94
2023/04/07 06:12:00;;;;;;;17.37;14.37;;;4.80;96.50;;;;;;5069505;28;20165;-94
2023/04/07 06:14:27;;;;;;;16.23;14.43;;;4.70;96.60;;;;;;5065721;28;20177;-94
2023/04/07 06:16:56;;;;;;;18.90;16.77;;;4.60;96.80;;;;;;5066058;28;20281;-94
2023/04/07 06:19:22;;;;;;;18.93;15.07;;;4.60;96.40;;;;;;5067113;28;20178;-94
2023/04/07 06:21:54;;;;;;;15.57;13.97;;;4.70;96.90;;;;;;5068428;28;20201;-94
2023/04/07 06:24:26;;;;;;;18.93;14.33;;;4.70;96.80;;;;;;5068520;28;20185;-94
2023/04/07 06:26:52;;;;;;;20.40;13.87;;;4.70;96.60;;;;;;5070746;28;20205;-94
2023/04/07 06:29:17;;;;;;;16.00;14.07;;;4.70;96.90;;;;;;5068975;28;20204;-94
2023/04/07 06:31:43;;;;;;;16.87;12.90;;;4.80;96.90;;;;;;5071250;28;20184;-95
2023/04/07 06:34:09;;;;;;;15.73;14.03;;;4.90;97.10;;;;;;5071978;28;20201;-94
2023/04/07 06:36:35;;;;;;;19.13;14.43;;;4.90;96.50;;;;;;5071197;28;20296;-94
2023/04/07 06:39:00;;;;;;;17.33;14.52;;;5.00;96.50;;;;;;5073943;28;20177;-95
2023/04/07 06:41:26;;;;;;;16.10;14.07;;;5.00;96.80;;;;;;5074950;28;20205;-94
2023/04/07 06:43:52;;;;;;;17.60;13.93;;;5.10;97.10;;;;;;5074660;28;20178;-94
2023/04/07 06:46:18;;;;;;;16.05;13.90;;;5.20;97.20;;;;;;5074212;28;20198;-94
2023/04/07 06:48:45;;;;;;;17.05;14.23;;;5.30;97.30;;;;;;5072125;28;20169;-94
2023/04/07 06:51:10;;;;;;;16.17;13.48;;;5.40;97.40;;;;;;5072662;28;20183;-94
2023/04/07 06:53:40;;;;;;;16.67;14.30;;;5.60;97.10;;;;;;5072661;28;20185;-94
2023/04/07 08:49:28;;;;;;;;;;;;;;;;;;;;;
2023/04/07 09:17:41;;;;;;;48.70;43.63;;;10.50;91.40;;;;;;4857914;29;20208;-74
2023/04/07 09:20:21;;;;;;;58.97;47.67;;;10.50;91.30;;;;;;4858880;29;20188;-73
2023/04/07 09:22:49;;;;;;;25.70;23.00;;;10.60;91.10;;;;;;4937583;28;20293;-73
2023/04/07 09:25:30;;;;;;;26.90;24.10;;;10.70;91.20;;;;;;5056218;28;20264;-74
2023/04/07 09:28:04;;;;;;;41.78;32.60;;;10.80;91.20;;;;;;5056321;28;20272;-74
2023/04/07 09:34:00;;;;;;;21.05;18.45;;;10.90;90.20;;;;;;5074610;28;20257;-74
2023/04/07 09:36:41;;;;;;;29.08;25.73;;;11.00;90.90;;;;;;5056273;28;20227;-74
2023/04/07 10:17:08;;;;;;;15.70;13.95;;;11.70;89.00;;;;;;4977330;28;20254;-73
2023/04/07 10:30:38;;;;;;;80.60;69.53;;;12.20;86.80;;;;;;4957773;29;20168;-73
2023/04/07 10:57:10;;;;;;;46.88;37.55;;;12.30;86.00;;;;;;5503240;22;20240;-93
2023/04/07 10:59:40;;;;;;;137.30;101.03;;;12.40;87.00;;;;;;5084411;28;20162;-96
2023/04/07 11:02:16;;;;;;;132.05;93.53;;;12.40;87.60;;;;;;5082840;28;20205;-94
2023/04/07 11:04:46;;;;;;;101.25;71.57;;;12.40;89.00;;;;;;5084604;28;20161;-95
2023/04/07 11:07:14;;;;;;;49.50;40.78;;;12.40;89.00;;;;;;5084483;28;20257;-93
2023/04/07 11:09:41;;;;;;;20.77;18.58;;;12.50;88.50;;;;;;5084461;28;20164;-93
2023/04/07 11:12:07;;;;;;;33.65;30.30;;;12.40;90.10;;;;;;5100724;28;20158;-91
2023/04/07 11:14:58;;;;;;;46.92;40.28;;;12.30;90.20;;;;;;5084479;28;20177;-94
2023/04/07 11:17:26;;;;;;;34.42;29.27;;;12.20;89.70;;;;;;5084478;28;20178;-93
2023/04/07 11:19:53;;;;;;;17.02;15.32;;;12.20;90.60;;;;;;5101591;28;20169;-94
2023/04/07 11:22:19;;;;;;;16.50;14.75;;;12.30;90.10;;;;;;5084257;28;20257;-92
2023/04/07 11:24:46;;;;;;;16.23;14.45;;;12.10;89.90;;;;;;5084217;28;20158;-94
2023/04/07 11:27:12;;;;;;;15.70;14.18;;;12.10;89.40;;;;;;5084008;28;20205;-93
2023/04/07 12:14:39;;;;;;;16.40;14.70;;;10.50;92.70;;;;;;5055715;28;20296;-73
2023/04/07 12:28:29;;;;;;;;;;;;;;;;;;;;;
2023/04/07 12:58:49;;;;;;;47.83;34.55;;;12.00;90.90;;;;;;4768583;30;20249;-74
2023/04/07 13:01:16;;;;;;;25.05;19.50;;;12.10;90.70;;;;;;4780378;30;20238;-73
2023/04/07 13:03:46;;;;;;;19.17;15.43;;;12.20;90.60;;;;;;4852409;29;20204;-73
2023/04/07 13:06:18;;;;;;;14.88;13.40;;;12.40;90.60;;;;;;4861325;29;20200;-73
2023/04/07 13:08:44;;;;;;;14.73;13.32;;;12.60;90.00;;;;;;4936559;29;20277;-74
2023/04/07 13:11:16;;;;;;;14.48;13.00;;;12.70;89.50;;;;;;4940251;29;20197;-73
2023/04/07 13:14:06;;;;;;;14.40;13.02;;;12.80;90.20;;;;;;4939197;29;20198;-73
2023/04/07 13:16:41;;;;;;;15.10;12.40;;;12.80;88.80;;;;;;4954587;29;20209;-73
2023/04/07 13:19:14;;;;;;;14.63;12.88;;;12.80;88.10;;;;;;5034059;28;20206;-74
2023/04/07 13:21:40;;;;;;;14.60;13.20;;;12.70;87.90;;;;;;5033144;28;20217;-74
2023/04/07 13:24:06;;;;;;;13.88;12.20;;;12.70;87.40;;;;;;5033044;28;20664;-74
2023/04/07 13:26:41;;;;;;;15.63;14.13;;;13.00;87.80;;;;;;5033831;28;20198;-74
2023/04/07 13:29:25;;;;;;;24.20;21.70;;;13.20;87.40;;;;;;5033192;28;20174;-74
2023/04/07 13:32:11;;;;;;;72.78;64.82;;;13.30;86.80;;;;;;5032440;28;20653;-75
2023/04/07 13:34:45;;;;;;;39.75;35.83;;;13.40;85.80;;;;;;5031948;28;20179;-74
2023/04/07 13:37:12;;;;;;;21.05;19.05;;;13.30;85.00;;;;;;5032751;28;20285;-74
2023/04/07 13:39:38;;;;;;;18.98;17.00;;;13.00;86.70;;;;;;5033064;28;20175;-75
2023/04/07 13:42:09;;;;;;;14.35;13.00;;;12.90;86.00;;;;;;5032896;28;20210;-75
2023/04/07 13:44:42;;;;;;;14.45;12.95;;;12.80;87.10;;;;;;5032654;28;20206;-75
2023/04/07 13:47:08;;;;;;;12.38;11.10;;;13.00;86.60;;;;;;5032629;28;20195;-74
2023/04/07 13:49:33;;;;;;;14.48;11.65;;;13.20;85.80;;;;;;5033912;28;20178;-75
2023/04/07 13:51:59;;;;;;;14.07;11.85;;;13.20;85.80;;;;;;5033883;28;20185;-75
2023/04/07 13:54:24;;;;;;;14.70;11.50;;;13.40;87.00;;;;;;5034235;28;20198;-75
2023/04/07 13:56:50;;;;;;;13.18;11.98;;;13.20;83.80;;;;;;5033612;28;20296;-75
2023/04/07 13:59:25;;;;;;;27.55;24.85;;;13.00;85.00;;;;;;5033013;28;20237;-74
2023/04/07 14:01:51;;;;;;;15.25;13.82;;;13.10;85.30;;;;;;5033114;28;20209;-75
2023/04/07 14:04:16;;;;;;;13.27;11.88;;;13.00;84.30;;;;;;5032598;28;20190;-75
2023/04/07 14:06:42;;;;;;;13.07;11.43;;;13.10;85.40;;;;;;5032868;28;20673;-75
2023/04/07 14:09:19;;;;;;;13.07;11.77;;;13.00;84.70;;;;;;5034400;28;20205;-75
2023/04/07 14:11:47;;;;;;;12.18;10.93;;;12.80;83.90;;;;;;5034147;28;20177;-75
2023/04/07 14:14:16;;;;;;;11.40;10.20;;;12.80;85.50;;;;;;5033705;28;20626;-75
2023/04/07 14:16:43;;;;;;;11.23;10.20;;;12.80;85.60;;;;;;5034335;28;20199;-75
2023/04/07 14:19:14;;;;;;;10.65;9.55;;;13.00;85.80;;;;;;5032721;28;20179;-75
2023/04/07 14:21:39;;;;;;;11.93;10.68;;;12.90;84.10;;;;;;5017643;28;20206;-75
2023/04/07 14:24:34;;;;;;;10.82;9.70;;;12.70;84.70;;;;;;5033441;28;20174;-75
2023/04/07 14:27:04;;;;;;;12.32;9.77;;;12.60;85.30;;;;;;5016828;28;20195;-74
2023/04/07 14:29:31;;;;;;;11.38;10.20;;;12.50;85.20;;;;;;5033957;28;20182;-74
2023/04/07 14:32:03;;;;;;;10.60;9.60;;;12.30;85.80;;;;;;5033329;28;20194;-75
2023/04/07 14:34:38;;;;;;;11.68;9.70;;;12.10;86.50;;;;;;5034456;28;20178;-75
2023/04/07 14:37:12;;;;;;;10.63;9.65;;;12.00;87.40;;;;;;5016173;28;20201;-74
2023/04/07 14:39:47;;;;;;;10.15;9.02;;;11.90;88.50;;;;;;5015895;28;20553;-75
2023/04/07 14:42:28;;;;;;;10.55;8.77;;;11.80;88.00;;;;;;5017120;28;20206;-74
2023/04/07 14:44:54;;;;;;;9.35;8.45;;;11.80;88.20;;;;;;5034109;28;20155;-74
2023/04/07 14:47:21;;;;;;;8.90;8.10;;;11.60;88.50;;;;;;5019714;28;20195;-74
2023/04/07 14:49:47;;;;;;;11.15;8.75;;;11.60;89.20;;;;;;5019393;28;20167;-74
2023/04/07 14:52:15;;;;;;;8.68;7.88;;;11.50;89.90;;;;;;5019341;28;20187;-75
2023/04/07 14:54:40;;;;;;;12.60;7.65;;;11.40;90.10;;;;;;5019592;28;20199;-74
2023/04/07 14:57:10;;;;;;;7.65;6.82;;;11.40;90.50;;;;;;5019293;28;20203;-74
2023/04/07 14:59:37;;;;;;;7.38;6.68;;;11.30;90.50;;;;;;5020144;28;20178;-74
2023/04/07 15:02:03;;;;;;;7.30;6.60;;;11.30;90.30;;;;;;5019383;28;20207;-75
2023/04/07 15:04:47;;;;;;;7.05;6.25;;;11.30;90.50;;;;;;5018956;28;20191;-75
2023/04/07 15:08:15;;;;;;;6.15;5.65;;;11.30;90.00;;;;;;5019175;28;20195;-75
2023/04/07 15:10:42;;;;;;;31.95;28.95;;;11.50;90.00;;;;;;5035647;28;20167;-75
2023/04/07 15:13:24;;;;;;;7.70;7.03;;;11.50;89.90;;;;;;5035454;28;20171;-75
2023/04/07 15:15:49;;;;;;;5.50;5.07;;;11.50;89.10;;;;;;5019378;28;20205;-75
2023/04/07 15:18:15;;;;;;;6.35;5.72;;;11.40;88.90;;;;;;5019101;28;20187;-75
2023/04/07 15:20:41;;;;;;;5.25;4.75;;;11.40;89.90;;;;;;5018838;28;20187;-75
2023/04/07 15:23:07;;;;;;;6.45;5.88;;;11.30;89.80;;;;;;5019990;28;20252;-75
2023/04/07 15:25:36;;;;;;;6.55;5.93;;;11.30;89.50;;;;;;5018519;28;20262;-74
2023/04/07 15:28:02;;;;;;;9.30;7.82;;;11.20;90.10;;;;;;5018936;28;20545;-74
2023/04/07 15:30:28;;;;;;;8.10;6.90;;;11.20;90.30;;;;;;5018588;28;20179;-74
2023/04/07 15:33:04;;;;;;;6.05;5.55;;;11.10;90.10;;;;;;5018774;28;20186;-74
2023/04/07 15:35:51;;;;;;;6.53;5.93;;;11.00;90.40;;;;;;5019126;28;20177;-74
2023/04/07 15:39:10;;;;;;;8.45;6.05;;;11.00;90.30;;;;;;5019979;28;20167;-75
2023/04/07 15:41:44;;;;;;;7.30;6.35;;;10.90;90.30;;;;;;5033113;28;20214;-74
2023/04/07 15:44:39;;;;;;;6.82;6.22;;;10.90;90.50;;;;;;5018271;28;20171;-73
2023/04/07 15:47:32;;;;;;;6.72;6.10;;;11.00;90.80;;;;;;5029099;28;20194;-73
2023/04/07 15:49:57;;;;;;;6.80;6.10;;;11.00;90.50;;;;;;5038070;28;20261;-73
2023/04/07 15:52:23;;;;;;;7.03;5.95;;;11.00;90.80;;;;;;5037686;28;20604;-74
2023/04/07 15:54:50;;;;;;;6.97;6.28;;;11.10;91.00;;;;;;5037636;28;20186;-73
2023/04/07 15:57:15;;;;;;;11.10;6.72;;;11.10;90.70;;;;;;5028661;28;20288;-73
2023/04/07 15:59:41;;;;;;;8.55;6.75;;;11.10;90.80;;;;;;5037323;28;20285;-73
2023/04/07 16:02:07;;;;;;;10.07;6.78;;;11.00;90.20;;;;;;5037441;28;20198;-73
2023/04/07 16:04:37;;;;;;;8.35;7.07;;;11.00;90.90;;;;;;5037168;28;20182;-73
2023/04/07 16:10:31;;;;;;;7.45;6.75;;;10.80;90.80;;;;;;5050829;28;20257;-73
2023/04/07 16:16:19;;;;;;;8.10;7.40;;;10.70;91.40;;;;;;5035195;28;20237;-73
2023/04/07 16:18:45;;;;;;;7.75;7.05;;;10.60;91.20;;;;;;5017464;28;20730;-73
2023/04/07 16:21:11;;;;;;;8.95;8.05;;;10.50;91.80;;;;;;5017458;28;20187;-73
2023/04/07 16:23:36;;;;;;;9.82;8.35;;;10.40;92.30;;;;;;5017223;28;20171;-73
2023/04/07 16:26:03;;;;;;;11.88;8.63;;;10.20;92.50;;;;;;5016963;28;20249;-73
2023/04/07 16:28:29;;;;;;;10.05;9.15;;;10.10;92.70;;;;;;5017060;28;20265;-73
2023/04/07 16:30:54;;;;;;;10.32;9.20;;;10.00;93.10;;;;;;5034600;28;20587;-73
2023/04/07 16:33:22;;;;;;;9.70;8.70;;;9.90;93.30;;;;;;5016763;28;20183;-73
2023/04/07 16:35:48;;;;;;;9.77;8.77;;;9.90;93.30;;;;;;5017194;28;20170;-73
2023/04/07 16:38:14;;;;;;;9.38;8.48;;;9.90;93.10;;;;;;5034195;28;20179;-73
2023/04/07 16:40:40;;;;;;;9.80;8.43;;;9.80;93.30;;;;;;5033305;28;20167;-73
2023/04/07 16:43:07;;;;;;;9.32;8.52;;;9.80;93.40;;;;;;5016464;28;20202;-73
2023/04/07 16:46:24;;;;;;;10.50;8.10;;;9.70;93.30;;;;;;5034271;28;20171;-73
2023/04/07 16:48:53;;;;;;;9.55;8.65;;;9.70;93.60;;;;;;5017154;28;20183;-73
2023/04/07 16:51:23;;;;;;;9.27;8.32;;;9.60;93.80;;;;;;5016635;28;20182;-73
2023/04/07 16:53:55;;;;;;;9.73;8.40;;;9.50;93.80;;;;;;5017717;28;20309;-73
2023/04/07 16:56:22;;;;;;;10.07;8.07;;;9.40;93.90;;;;;;5016512;28;20209;-73
2023/04/07 16:59:34;;;;;;;9.07;8.20;;;9.40;94.00;;;;;;5016489;28;20183;-73
2023/04/07 17:02:10;;;;;;;10.38;8.60;;;9.30;93.70;;;;;;5017175;28;20195;-73
2023/04/07 17:04:36;;;;;;;9.07;8.15;;;9.30;94.10;;;;;;5017221;28;20170;-73
2023/04/07 17:10:24;;;;;;;11.35;8.38;;;9.20;94.00;;;;;;5033473;28;20217;-73
2023/04/07 17:13:05;;;;;;;11.70;8.13;;;9.10;94.10;;;;;;5017131;28;20214;-73
2023/04/07 17:15:40;;;;;;;9.10;8.02;;;9.00;94.80;;;;;;5016994;28;20185;-73
2023/04/07 17:18:06;;;;;;;13.80;8.48;;;9.00;95.20;;;;;;5017304;28;20182;-73
2023/04/07 17:20:31;;;;;;;9.57;8.68;;;9.00;95.70;;;;;;5016127;28;20183;-73
2023/04/07 17:23:27;;;;;;;9.15;8.25;;;8.90;95.80;;;;;;5016940;28;20203;-73
2023/04/07 17:26:03;;;;;;;9.90;8.43;;;8.90;95.90;;;;;;5034159;28;20193;-73
2023/04/07 17:28:32;;;;;;;9.50;8.50;;;8.80;96.20;;;;;;5034033;28;20163;-73
2023/04/07 17:30:57;;;;;;;10.02;9.02;;;8.70;96.20;;;;;;5016871;28;20171;-73
2023/04/07 17:33:24;;;;;;;11.35;9.52;;;8.70;96.10;;;;;;5016885;28;20201;-73
2023/04/07 17:35:50;;;;;;;12.10;10.02;;;8.70;96.20;;;;;;5015892;28;20203;-73
2023/04/07 17:38:16;;;;;;;12.32;11.10;;;8.60;96.30;;;;;;5015958;28;20178;-73
2023/04/07 17:41:08;;;;;;;10.25;9.35;;;8.60;96.30;;;;;;5016487;28;20270;-73
2023/04/07 17:43:42;;;;;;;10.98;8.90;;;8.50;96.60;;;;;;5016769;28;20183;-73
2023/04/07 17:46:47;;;;;;;13.00;9.43;;;8.50;96.90;;;;;;5033926;28;20193;-77
2023/04/07 17:49:13;;;;;;;11.68;10.38;;;8.50;97.20;;;;;;5016641;28;20261;-73
2023/04/07 17:51:42;;;;;;;11.82;10.63;;;8.40;97.30;;;;;;5016177;28;20213;-73
2023/04/07 17:54:33;;;;;;;12.65;9.85;;;8.40;97.40;;;;;;5015988;28;20182;-73
2023/04/07 18:00:54;;;;;;;12.02;9.32;;;8.40;97.50;;;;;;5038445;28;20184;-73
2023/04/07 18:03:32;;;;;;;11.25;10.15;;;8.30;97.40;;;;;;5051950;28;20218;-73
2023/04/07 18:09:36;;;;;;;12.05;10.13;;;8.30;97.20;;;;;;5053814;28;20166;-74
2023/04/07 18:16:34;;;;;;;9.07;8.10;;;8.20;96.70;;;;;;5053025;28;20166;-73
2023/04/07 18:22:41;;;;;;;10.48;8.35;;;8.00;96.80;;;;;;5057173;28;20267;-73
2023/04/07 18:25:45;;;;;;;8.63;7.10;;;8.00;96.90;;;;;;5057017;28;20611;-73
2023/04/07 18:28:11;;;;;;;8.98;8.07;;;8.00;96.90;;;;;;5055758;28;20181;-73
2023/04/07 18:30:37;;;;;;;9.40;7.32;;;8.00;96.80;;;;;;5039203;28;20182;-73
2023/04/07 18:36:26;;;;;;;9.30;7.40;;;8.00;96.80;;;;;;5057113;28;20201;-73
2023/04/07 18:38:51;;;;;;;10.48;7.18;;;7.90;97.00;;;;;;5056794;28;20220;-73
2023/04/07 18:41:30;;;;;;;8.30;7.50;;;7.90;97.10;;;;;;5055484;28;20178;-73
2023/04/07 18:43:56;;;;;;;8.65;7.43;;;7.80;97.20;;;;;;5038825;28;20170;-73
2023/04/07 18:47:02;;;;;;;8.93;7.90;;;7.80;97.20;;;;;;5057204;28;20208;-73
2023/04/07 18:49:28;;;;;;;12.02;8.70;;;7.70;97.40;;;;;;5056260;28;20245;-73
2023/04/07 18:52:03;;;;;;;8.20;7.32;;;7.50;98.00;;;;;;5056823;28;20228;-73